aviador You're here:

WBKT Decoded Metar

KUDAT in MALAYSIA
Report Time2018-06-17 21:00:00
UTC Time2018-06-17 21:46:29
Flight Rules vfr VFR
WindVRB at 01 kt
Visibility9999 m
Phenomena:N/A
Clouds:Few 015 Hf
Broken 280 Hf
Ceiling28,000 ft
Temp24°C (ISA +9)
Dew Point24°C (100% RH)
QNH1008 hPa
Density Alt1,624 ft
Elevation16 ft
Report Wrong Elevation
Raw Report
WBKT 172100Z VRB01KT 9999 FEW015 BKN280 24/24 Q1008=

Extra information for WBKT:More info

Metar Taf Metar & Taf Last 4 Metars F.Rules Stats Wind Profile Meteogram Temp Stats Airport Information Weather charts Add Link Nearby VenuesMetar ALERT Operation Metar Decoded Social comments